sensor_id;sensor_type;location;lat;lon;timestamp;temperature;humidity
12426;DHT22;6277;49.824;9.562;2023-12-28T00:01:50;5.80;83.70
12426;DHT22;6277;49.824;9.562;2023-12-28T00:04:16;5.80;83.50
12426;DHT22;6277;49.824;9.562;2023-12-28T00:06:42;5.80;83.50
12426;DHT22;6277;49.824;9.562;2023-12-28T00:09:08;5.80;83.40
12426;DHT22;6277;49.824;9.562;2023-12-28T00:11:35;5.90;83.50
12426;DHT22;6277;49.824;9.562;2023-12-28T00:14:00;5.80;83.80
12426;DHT22;6277;49.824;9.562;2023-12-28T00:16:26;5.90;84.00
12426;DHT22;6277;49.824;9.562;2023-12-28T00:18:52;5.90;84.20
12426;DHT22;6277;49.824;9.562;2023-12-28T00:21:18;6.00;84.20
12426;DHT22;6277;49.824;9.562;2023-12-28T00:23:43;6.00;84.10
12426;DHT22;6277;49.824;9.562;2023-12-28T00:26:09;6.00;83.90
12426;DHT22;6277;49.824;9.562;2023-12-28T00:28:34;6.10;83.80
12426;DHT22;6277;49.824;9.562;2023-12-28T00:31:00;6.10;83.60
12426;DHT22;6277;49.824;9.562;2023-12-28T00:33:25;6.10;83.50
12426;DHT22;6277;49.824;9.562;2023-12-28T00:35:51;6.10;83.40
12426;DHT22;6277;49.824;9.562;2023-12-28T00:38:16;6.10;83.30
12426;DHT22;6277;49.824;9.562;2023-12-28T00:40:42;6.10;83.10
12426;DHT22;6277;49.824;9.562;2023-12-28T00:43:07;6.00;83.00
12426;DHT22;6277;49.824;9.562;2023-12-28T00:45:33;6.00;83.00
12426;DHT22;6277;49.824;9.562;2023-12-28T00:47:58;6.00;83.00
12426;DHT22;6277;49.824;9.562;2023-12-28T00:50:24;6.00;82.80
12426;DHT22;6277;49.824;9.562;2023-12-28T00:52:52;5.90;82.70
12426;DHT22;6277;49.824;9.562;2023-12-28T00:55:18;5.90;82.80
12426;DHT22;6277;49.824;9.562;2023-12-28T00:57:43;5.90;82.70
12426;DHT22;6277;49.824;9.562;2023-12-28T01:00:09;5.90;82.80
12426;DHT22;6277;49.824;9.562;2023-12-28T01:02:35;5.80;82.80
12426;DHT22;6277;49.824;9.562;2023-12-28T01:05:00;5.80;83.10
12426;DHT22;6277;49.824;9.562;2023-12-28T01:07:26;5.80;83.50
12426;DHT22;6277;49.824;9.562;2023-12-28T01:09:51;5.80;84.10
12426;DHT22;6277;49.824;9.562;2023-12-28T01:12:17;5.90;84.70
12426;DHT22;6277;49.824;9.562;2023-12-28T01:14:42;6.00;85.00
12426;DHT22;6277;49.824;9.562;2023-12-28T01:17:08;6.10;85.00
12426;DHT22;6277;49.824;9.562;2023-12-28T01:19:34;6.20;85.00
12426;DHT22;6277;49.824;9.562;2023-12-28T01:21:59;6.30;84.90
12426;DHT22;6277;49.824;9.562;2023-12-28T01:24:25;6.40;84.80
12426;DHT22;6277;49.824;9.562;2023-12-28T01:26:52;6.40;84.60
12426;DHT22;6277;49.824;9.562;2023-12-28T01:29:17;6.50;84.60
12426;DHT22;6277;49.824;9.562;2023-12-28T01:31:43;6.60;84.60
12426;DHT22;6277;49.824;9.562;2023-12-28T01:34:08;6.60;84.50
12426;DHT22;6277;49.824;9.562;2023-12-28T01:36:34;6.70;84.50
12426;DHT22;6277;49.824;9.562;2023-12-28T01:39:00;6.70;84.40
12426;DHT22;6277;49.824;9.562;2023-12-28T01:41:25;6.80;84.40
12426;DHT22;6277;49.824;9.562;2023-12-28T01:43:51;6.90;84.70
12426;DHT22;6277;49.824;9.562;2023-12-28T01:46:17;6.90;84.80
12426;DHT22;6277;49.824;9.562;2023-12-28T01:48:45;7.00;85.00
12426;DHT22;6277;49.824;9.562;2023-12-28T01:51:12;7.10;85.20
12426;DHT22;6277;49.824;9.562;2023-12-28T01:53:38;7.30;85.60
12426;DHT22;6277;49.824;9.562;2023-12-28T01:56:04;7.40;86.00
12426;DHT22;6277;49.824;9.562;2023-12-28T01:58:33;7.60;86.00
12426;DHT22;6277;49.824;9.562;2023-12-28T02:01:00;7.70;85.70
12426;DHT22;6277;49.824;9.562;2023-12-28T02:03:26;7.80;85.60
12426;DHT22;6277;49.824;9.562;2023-12-28T02:05:52;8.00;85.50
12426;DHT22;6277;49.824;9.562;2023-12-28T02:08:19;8.10;85.30
12426;DHT22;6277;49.824;9.562;2023-12-28T02:10:44;8.20;85.10
12426;DHT22;6277;49.824;9.562;2023-12-28T02:13:10;8.30;84.90
12426;DHT22;6277;49.824;9.562;2023-12-28T02:15:36;8.40;84.70
12426;DHT22;6277;49.824;9.562;2023-12-28T02:18:12;8.40;84.60
12426;DHT22;6277;49.824;9.562;2023-12-28T02:20:43;8.50;83.60
12426;DHT22;6277;49.824;9.562;2023-12-28T02:23:10;8.60;84.20
12426;DHT22;6277;49.824;9.562;2023-12-28T02:25:35;8.70;84.20
12426;DHT22;6277;49.824;9.562;2023-12-28T02:28:01;8.70;84.40
12426;DHT22;6277;49.824;9.562;2023-12-28T02:30:26;8.80;84.50
12426;DHT22;6277;49.824;9.562;2023-12-28T02:33:18;8.90;84.70
12426;DHT22;6277;49.824;9.562;2023-12-28T02:35:57;9.10;83.30
12426;DHT22;6277;49.824;9.562;2023-12-28T02:38:25;9.20;83.80
12426;DHT22;6277;49.824;9.562;2023-12-28T02:40:51;9.30;84.70
12426;DHT22;6277;49.824;9.562;2023-12-28T02:43:17;9.50;84.60
12426;DHT22;6277;49.824;9.562;2023-12-28T02:45:43;9.60;84.50
12426;DHT22;6277;49.824;9.562;2023-12-28T02:48:08;9.80;84.50
12426;DHT22;6277;49.824;9.562;2023-12-28T02:50:35;9.90;84.50
12426;DHT22;6277;49.824;9.562;2023-12-28T02:53:01;10.10;84.10
12426;DHT22;6277;49.824;9.562;2023-12-28T02:55:27;10.20;84.20
12426;DHT22;6277;49.824;9.562;2023-12-28T02:57:55;10.30;84.10
12426;DHT22;6277;49.824;9.562;2023-12-28T03:00:22;10.40;83.50
12426;DHT22;6277;49.824;9.562;2023-12-28T03:02:47;10.50;83.70
12426;DHT22;6277;49.824;9.562;2023-12-28T03:05:13;10.60;83.70
12426;DHT22;6277;49.824;9.562;2023-12-28T03:07:38;10.70;83.50
12426;DHT22;6277;49.824;9.562;2023-12-28T03:10:06;10.80;83.30
12426;DHT22;6277;49.824;9.562;2023-12-28T03:12:32;10.90;83.20
12426;DHT22;6277;49.824;9.562;2023-12-28T03:14:57;11.00;83.10
12426;DHT22;6277;49.824;9.562;2023-12-28T03:17:23;11.10;83.00
12426;DHT22;6277;49.824;9.562;2023-12-28T03:19:48;11.10;82.90
12426;DHT22;6277;49.824;9.562;2023-12-28T03:22:14;11.20;82.70
12426;DHT22;6277;49.824;9.562;2023-12-28T03:24:40;11.30;82.70
12426;DHT22;6277;49.824;9.562;2023-12-28T03:27:06;11.30;82.60
12426;DHT22;6277;49.824;9.562;2023-12-28T03:29:31;11.40;82.60
12426;DHT22;6277;49.824;9.562;2023-12-28T03:31:57;11.50;82.50
12426;DHT22;6277;49.824;9.562;2023-12-28T03:34:23;11.50;82.40
12426;DHT22;6277;49.824;9.562;2023-12-28T03:36:49;11.50;82.40
12426;DHT22;6277;49.824;9.562;2023-12-28T03:39:15;11.60;82.30
12426;DHT22;6277;49.824;9.562;2023-12-28T03:41:40;11.60;82.10
12426;DHT22;6277;49.824;9.562;2023-12-28T03:44:06;11.70;81.80
12426;DHT22;6277;49.824;9.562;2023-12-28T03:46:32;11.80;81.60
12426;DHT22;6277;49.824;9.562;2023-12-28T03:48:57;11.80;81.50
12426;DHT22;6277;49.824;9.562;2023-12-28T03:51:23;11.90;81.50
12426;DHT22;6277;49.824;9.562;2023-12-28T03:53:48;11.90;81.70
12426;DHT22;6277;49.824;9.562;2023-12-28T03:56:25;12.00;81.50
12426;DHT22;6277;49.824;9.562;2023-12-28T03:58:51;12.00;80.40
12426;DHT22;6277;49.824;9.562;2023-12-28T04:01:22;12.10;81.20
12426;DHT22;6277;49.824;9.562;2023-12-28T04:03:48;12.10;80.20
12426;DHT22;6277;49.824;9.562;2023-12-28T04:06:14;12.10;80.70
12426;DHT22;6277;49.824;9.562;2023-12-28T04:08:41;12.20;80.60
12426;DHT22;6277;49.824;9.562;2023-12-28T04:11:06;12.20;80.80
12426;DHT22;6277;49.824;9.562;2023-12-28T04:13:32;12.20;80.70
12426;DHT22;6277;49.824;9.562;2023-12-28T04:15:58;12.20;80.60
12426;DHT22;6277;49.824;9.562;2023-12-28T04:18:23;12.30;80.60
12426;DHT22;6277;49.824;9.562;2023-12-28T04:20:49;12.30;80.50
12426;DHT22;6277;49.824;9.562;2023-12-28T04:23:15;12.30;80.50
12426;DHT22;6277;49.824;9.562;2023-12-28T04:25:41;12.30;80.50
12426;DHT22;6277;49.824;9.562;2023-12-28T04:28:06;12.30;81.10
12426;DHT22;6277;49.824;9.562;2023-12-28T04:30:32;12.40;80.30
12426;DHT22;6277;49.824;9.562;2023-12-28T04:32:58;12.40;80.20
12426;DHT22;6277;49.824;9.562;2023-12-28T04:35:24;12.40;80.10
12426;DHT22;6277;49.824;9.562;2023-12-28T04:37:49;12.40;80.00
12426;DHT22;6277;49.824;9.562;2023-12-28T04:40:15;12.40;80.00
12426;DHT22;6277;49.824;9.562;2023-12-28T04:42:41;12.40;79.90
12426;DHT22;6277;49.824;9.562;2023-12-28T04:45:07;12.50;80.50
12426;DHT22;6277;49.824;9.562;2023-12-28T04:47:32;12.40;79.60
12426;DHT22;6277;49.824;9.562;2023-12-28T04:49:58;12.50;79.80
12426;DHT22;6277;49.824;9.562;2023-12-28T04:52:23;12.40;79.50
12426;DHT22;6277;49.824;9.562;2023-12-28T04:54:49;12.50;79.80
12426;DHT22;6277;49.824;9.562;2023-12-28T04:57:15;12.40;80.00
12426;DHT22;6277;49.824;9.562;2023-12-28T04:59:41;12.50;79.90
12426;DHT22;6277;49.824;9.562;2023-12-28T05:02:06;12.50;79.90
12426;DHT22;6277;49.824;9.562;2023-12-28T05:04:32;12.50;79.90
12426;DHT22;6277;49.824;9.562;2023-12-28T05:06:58;12.40;79.80
12426;DHT22;6277;49.824;9.562;2023-12-28T05:09:23;12.40;79.70
12426;DHT22;6277;49.824;9.562;2023-12-28T05:11:49;12.40;79.60
12426;DHT22;6277;49.824;9.562;2023-12-28T05:14:14;12.50;79.70
12426;DHT22;6277;49.824;9.562;2023-12-28T05:16:40;12.50;79.50
12426;DHT22;6277;49.824;9.562;2023-12-28T05:19:05;12.50;79.80
12426;DHT22;6277;49.824;9.562;2023-12-28T05:21:31;12.40;79.90
12426;DHT22;6277;49.824;9.562;2023-12-28T05:23:56;12.50;79.80
12426;DHT22;6277;49.824;9.562;2023-12-28T05:26:22;12.50;79.70
12426;DHT22;6277;49.824;9.562;2023-12-28T05:28:49;12.50;79.80
12426;DHT22;6277;49.824;9.562;2023-12-28T05:31:15;12.50;79.70
12426;DHT22;6277;49.824;9.562;2023-12-28T05:33:40;12.50;80.00
12426;DHT22;6277;49.824;9.562;2023-12-28T05:36:06;12.50;80.00
12426;DHT22;6277;49.824;9.562;2023-12-28T05:38:32;12.50;80.00
12426;DHT22;6277;49.824;9.562;2023-12-28T05:40:57;12.40;80.10
12426;DHT22;6277;49.824;9.562;2023-12-28T05:43:23;12.40;80.30
12426;DHT22;6277;49.824;9.562;2023-12-28T05:45:48;12.40;80.20
12426;DHT22;6277;49.824;9.562;2023-12-28T05:48:14;12.30;80.20
12426;DHT22;6277;49.824;9.562;2023-12-28T05:50:40;12.30;80.20
12426;DHT22;6277;49.824;9.562;2023-12-28T05:53:06;12.20;80.40
12426;DHT22;6277;49.824;9.562;2023-12-28T05:55:31;12.20;80.70
12426;DHT22;6277;49.824;9.562;2023-12-28T05:57:57;12.10;80.70
12426;DHT22;6277;49.824;9.562;2023-12-28T06:00:22;12.10;80.90
12426;DHT22;6277;49.824;9.562;2023-12-28T06:02:48;12.10;81.00
12426;DHT22;6277;49.824;9.562;2023-12-28T06:05:17;12.00;81.20
12426;DHT22;6277;49.824;9.562;2023-12-28T06:07:43;12.00;81.40
12426;DHT22;6277;49.824;9.562;2023-12-28T06:10:09;12.00;81.50
12426;DHT22;6277;49.824;9.562;2023-12-28T06:12:34;12.00;81.60
12426;DHT22;6277;49.824;9.562;2023-12-28T06:15:00;11.90;81.60
12426;DHT22;6277;49.824;9.562;2023-12-28T06:17:26;11.90;81.70
12426;DHT22;6277;49.824;9.562;2023-12-28T06:19:52;11.90;81.80
12426;DHT22;6277;49.824;9.562;2023-12-28T06:22:18;11.80;81.70
12426;DHT22;6277;49.824;9.562;2023-12-28T06:24:43;11.80;82.00
12426;DHT22;6277;49.824;9.562;2023-12-28T06:27:09;11.80;82.10
12426;DHT22;6277;49.824;9.562;2023-12-28T06:29:34;11.80;82.10
12426;DHT22;6277;49.824;9.562;2023-12-28T06:32:00;11.70;82.30
12426;DHT22;6277;49.824;9.562;2023-12-28T06:34:26;11.70;82.50
12426;DHT22;6277;49.824;9.562;2023-12-28T06:36:51;11.70;82.60
12426;DHT22;6277;49.824;9.562;2023-12-28T06:39:17;11.70;82.70
12426;DHT22;6277;49.824;9.562;2023-12-28T06:41:47;11.70;82.80
12426;DHT22;6277;49.824;9.562;2023-12-28T06:44:13;11.70;82.90
12426;DHT22;6277;49.824;9.562;2023-12-28T06:46:40;11.70;83.00
12426;DHT22;6277;49.824;9.562;2023-12-28T06:49:06;11.70;83.20
12426;DHT22;6277;49.824;9.562;2023-12-28T06:51:31;11.70;83.20
12426;DHT22;6277;49.824;9.562;2023-12-28T06:53:57;11.60;83.30
12426;DHT22;6277;49.824;9.562;2023-12-28T06:56:23;11.70;83.50
12426;DHT22;6277;49.824;9.562;2023-12-28T06:58:48;11.60;83.50
12426;DHT22;6277;49.824;9.562;2023-12-28T07:01:14;11.60;83.60
12426;DHT22;6277;49.824;9.562;2023-12-28T07:03:40;11.60;83.60
12426;DHT22;6277;49.824;9.562;2023-12-28T07:06:05;11.70;83.80
12426;DHT22;6277;49.824;9.562;2023-12-28T07:08:31;11.70;84.00
12426;DHT22;6277;49.824;9.562;2023-12-28T07:10:56;11.70;84.00
12426;DHT22;6277;49.824;9.562;2023-12-28T07:13:25;11.70;84.10
12426;DHT22;6277;49.824;9.562;2023-12-28T07:15:51;11.70;84.10
12426;DHT22;6277;49.824;9.562;2023-12-28T07:18:16;11.80;84.20
12426;DHT22;6277;49.824;9.562;2023-12-28T07:20:42;11.80;84.30
12426;DHT22;6277;49.824;9.562;2023-12-28T07:23:07;11.80;84.30
12426;DHT22;6277;49.824;9.562;2023-12-28T07:25:34;11.80;84.40
12426;DHT22;6277;49.824;9.562;2023-12-28T07:28:00;11.80;84.40
12426;DHT22;6277;49.824;9.562;2023-12-28T07:30:25;11.90;84.50
12426;DHT22;6277;49.824;9.562;2023-12-28T07:32:51;11.90;84.60
12426;DHT22;6277;49.824;9.562;2023-12-28T07:35:17;11.90;84.60
12426;DHT22;6277;49.824;9.562;2023-12-28T07:37:43;11.90;84.50
12426;DHT22;6277;49.824;9.562;2023-12-28T07:40:11;11.90;84.60
12426;DHT22;6277;49.824;9.562;2023-12-28T07:42:37;11.90;84.60
12426;DHT22;6277;49.824;9.562;2023-12-28T07:45:03;11.90;84.70
12426;DHT22;6277;49.824;9.562;2023-12-28T07:47:29;11.90;84.70
12426;DHT22;6277;49.824;9.562;2023-12-28T07:49:55;12.00;84.70
12426;DHT22;6277;49.824;9.562;2023-12-28T07:52:20;12.00;84.80
12426;DHT22;6277;49.824;9.562;2023-12-28T07:54:46;12.00;84.80
12426;DHT22;6277;49.824;9.562;2023-12-28T07:57:11;12.00;84.90
12426;DHT22;6277;49.824;9.562;2023-12-28T07:59:37;12.00;84.90
12426;DHT22;6277;49.824;9.562;2023-12-28T08:02:02;12.00;84.90
12426;DHT22;6277;49.824;9.562;2023-12-28T08:04:28;12.00;84.90
12426;DHT22;6277;49.824;9.562;2023-12-28T08:06:53;12.10;85.00
12426;DHT22;6277;49.824;9.562;2023-12-28T08:09:19;12.10;85.10
12426;DHT22;6277;49.824;9.562;2023-12-28T08:11:44;12.10;85.10
12426;DHT22;6277;49.824;9.562;2023-12-28T08:14:10;12.10;85.10
12426;DHT22;6277;49.824;9.562;2023-12-28T08:16:36;12.10;85.20
12426;DHT22;6277;49.824;9.562;2023-12-28T08:19:02;12.10;85.90
12426;DHT22;6277;49.824;9.562;2023-12-28T08:21:27;12.10;85.30
12426;DHT22;6277;49.824;9.562;2023-12-28T08:23:53;12.10;85.40
12426;DHT22;6277;49.824;9.562;2023-12-28T08:26:18;12.20;85.40
12426;DHT22;6277;49.824;9.562;2023-12-28T08:28:45;12.20;85.40
12426;DHT22;6277;49.824;9.562;2023-12-28T08:31:10;12.20;85.50
12426;DHT22;6277;49.824;9.562;2023-12-28T08:33:36;12.20;85.50
12426;DHT22;6277;49.824;9.562;2023-12-28T08:36:06;12.30;85.50
12426;DHT22;6277;49.824;9.562;2023-12-28T08:38:31;12.30;85.40
12426;DHT22;6277;49.824;9.562;2023-12-28T08:40:57;12.30;85.50
12426;DHT22;6277;49.824;9.562;2023-12-28T08:43:23;12.30;85.50
12426;DHT22;6277;49.824;9.562;2023-12-28T08:45:48;12.40;85.60
12426;DHT22;6277;49.824;9.562;2023-12-28T08:48:14;12.40;85.50
12426;DHT22;6277;49.824;9.562;2023-12-28T08:50:39;12.40;85.50
12426;DHT22;6277;49.824;9.562;2023-12-28T08:53:05;12.50;85.60
12426;DHT22;6277;49.824;9.562;2023-12-28T08:55:31;12.50;85.50
12426;DHT22;6277;49.824;9.562;2023-12-28T08:57:56;12.50;85.50
12426;DHT22;6277;49.824;9.562;2023-12-28T09:00:22;12.50;85.50
12426;DHT22;6277;49.824;9.562;2023-12-28T09:02:47;12.50;85.40
12426;DHT22;6277;49.824;9.562;2023-12-28T09:05:13;12.60;85.50
12426;DHT22;6277;49.824;9.562;2023-12-28T09:07:38;12.60;85.50
12426;DHT22;6277;49.824;9.562;2023-12-28T09:10:11;12.60;85.30
12426;DHT22;6277;49.824;9.562;2023-12-28T09:12:37;12.70;85.20
12426;DHT22;6277;49.824;9.562;2023-12-28T09:15:07;12.60;85.20
12426;DHT22;6277;49.824;9.562;2023-12-28T09:17:33;12.70;85.00
12426;DHT22;6277;49.824;9.562;2023-12-28T09:19:59;12.70;85.30
12426;DHT22;6277;49.824;9.562;2023-12-28T09:22:26;12.70;85.30
12426;DHT22;6277;49.824;9.562;2023-12-28T09:24:52;12.80;85.30
12426;DHT22;6277;49.824;9.562;2023-12-28T09:27:17;12.80;85.30
12426;DHT22;6277;49.824;9.562;2023-12-28T09:29:43;12.80;85.30
12426;DHT22;6277;49.824;9.562;2023-12-28T09:32:08;12.90;85.20
12426;DHT22;6277;49.824;9.562;2023-12-28T09:34:34;12.90;85.30
12426;DHT22;6277;49.824;9.562;2023-12-28T09:36:59;12.90;85.30
12426;DHT22;6277;49.824;9.562;2023-12-28T09:39:25;13.00;85.20
12426;DHT22;6277;49.824;9.562;2023-12-28T09:41:59;13.00;85.10
12426;DHT22;6277;49.824;9.562;2023-12-28T09:44:26;13.10;84.30
12426;DHT22;6277;49.824;9.562;2023-12-28T09:46:52;13.10;84.20
12426;DHT22;6277;49.824;9.562;2023-12-28T09:49:21;13.10;84.90
12426;DHT22;6277;49.824;9.562;2023-12-28T09:51:47;13.20;84.70
12426;DHT22;6277;49.824;9.562;2023-12-28T09:54:13;13.20;84.50
12426;DHT22;6277;49.824;9.562;2023-12-28T09:56:40;13.20;84.80
12426;DHT22;6277;49.824;9.562;2023-12-28T09:59:06;13.20;84.60
12426;DHT22;6277;49.824;9.562;2023-12-28T10:01:33;13.20;84.60
12426;DHT22;6277;49.824;9.562;2023-12-28T10:03:59;13.30;84.40
12426;DHT22;6277;49.824;9.562;2023-12-28T10:06:25;13.30;84.80
12426;DHT22;6277;49.824;9.562;2023-12-28T10:08:51;13.30;84.30
12426;DHT22;6277;49.824;9.562;2023-12-28T10:11:18;13.30;84.40
12426;DHT22;6277;49.824;9.562;2023-12-28T10:13:44;13.40;84.20
12426;DHT22;6277;49.824;9.562;2023-12-28T10:16:11;13.40;84.10
12426;DHT22;6277;49.824;9.562;2023-12-28T10:18:43;13.40;84.00
12426;DHT22;6277;49.824;9.562;2023-12-28T10:21:09;13.50;83.80
12426;DHT22;6277;49.824;9.562;2023-12-28T10:23:35;13.50;83.90
12426;DHT22;6277;49.824;9.562;2023-12-28T10:26:02;13.50;84.10
12426;DHT22;6277;49.824;9.562;2023-12-28T10:28:31;13.50;84.00
12426;DHT22;6277;49.824;9.562;2023-12-28T10:30:58;13.50;83.80
12426;DHT22;6277;49.824;9.562;2023-12-28T10:33:24;13.50;83.60
12426;DHT22;6277;49.824;9.562;2023-12-28T10:35:52;13.60;83.80
12426;DHT22;6277;49.824;9.562;2023-12-28T10:38:20;13.60;83.50
12426;DHT22;6277;49.824;9.562;2023-12-28T10:40:46;13.50;83.70
12426;DHT22;6277;49.824;9.562;2023-12-28T10:43:17;13.50;83.40
12426;DHT22;6277;49.824;9.562;2023-12-28T10:45:46;13.60;83.10
12426;DHT22;6277;49.824;9.562;2023-12-28T10:48:13;13.50;83.10
12426;DHT22;6277;49.824;9.562;2023-12-28T10:50:42;13.50;83.20
12426;DHT22;6277;49.824;9.562;2023-12-28T10:56:34;13.50;82.00
12426;DHT22;6277;49.824;9.562;2023-12-28T11:01:56;13.50;83.00
12426;DHT22;6277;49.824;9.562;2023-12-28T11:04:37;13.50;83.20
12426;DHT22;6277;49.824;9.562;2023-12-28T11:07:05;13.50;82.30
12426;DHT22;6277;49.824;9.562;2023-12-28T11:09:34;13.50;82.90
12426;DHT22;6277;49.824;9.562;2023-12-28T11:12:01;13.50;82.90
12426;DHT22;6277;49.824;9.562;2023-12-28T11:14:28;13.60;82.80
12426;DHT22;6277;49.824;9.562;2023-12-28T11:16:54;13.50;82.70
12426;DHT22;6277;49.824;9.562;2023-12-28T11:19:20;13.60;82.80
12426;DHT22;6277;49.824;9.562;2023-12-28T11:21:49;13.60;82.80
12426;DHT22;6277;49.824;9.562;2023-12-28T11:24:15;13.50;82.50
12426;DHT22;6277;49.824;9.562;2023-12-28T11:26:42;13.50;82.70
12426;DHT22;6277;49.824;9.562;2023-12-28T11:29:07;13.50;82.80
12426;DHT22;6277;49.824;9.562;2023-12-28T11:31:34;13.50;82.90
12426;DHT22;6277;49.824;9.562;2023-12-28T11:34:00;13.50;82.60
12426;DHT22;6277;49.824;9.562;2023-12-28T11:36:34;13.50;82.50
12426;DHT22;6277;49.824;9.562;2023-12-28T11:39:06;13.50;82.00
12426;DHT22;6277;49.824;9.562;2023-12-28T11:41:32;13.50;81.90
12426;DHT22;6277;49.824;9.562;2023-12-28T11:44:05;13.50;82.40
12426;DHT22;6277;49.824;9.562;2023-12-28T11:46:35;13.50;82.00
12426;DHT22;6277;49.824;9.562;2023-12-28T11:49:06;13.50;81.90
12426;DHT22;6277;49.824;9.562;2023-12-28T11:51:34;13.50;81.80
12426;DHT22;6277;49.824;9.562;2023-12-28T11:54:00;13.50;82.10
12426;DHT22;6277;49.824;9.562;2023-12-28T11:56:26;13.50;83.30
12426;DHT22;6277;49.824;9.562;2023-12-28T11:58:52;13.50;82.50
12426;DHT22;6277;49.824;9.562;2023-12-28T12:01:17;13.60;82.60
12426;DHT22;6277;49.824;9.562;2023-12-28T12:03:43;13.60;82.60
12426;DHT22;6277;49.824;9.562;2023-12-28T12:06:09;13.60;82.40
12426;DHT22;6277;49.824;9.562;2023-12-28T12:08:34;13.60;82.20
12426;DHT22;6277;49.824;9.562;2023-12-28T12:11:01;13.70;82.30
12426;DHT22;6277;49.824;9.562;2023-12-28T12:13:29;13.70;82.00
12426;DHT22;6277;49.824;9.562;2023-12-28T12:15:55;13.70;82.30
12426;DHT22;6277;49.824;9.562;2023-12-28T12:18:22;13.70;82.10
12426;DHT22;6277;49.824;9.562;2023-12-28T12:20:49;13.70;82.10
12426;DHT22;6277;49.824;9.562;2023-12-28T12:23:15;13.80;81.80
12426;DHT22;6277;49.824;9.562;2023-12-28T12:25:41;13.80;81.80
12426;DHT22;6277;49.824;9.562;2023-12-28T12:28:07;13.80;81.70
12426;DHT22;6277;49.824;9.562;2023-12-28T12:30:34;13.80;81.60
12426;DHT22;6277;49.824;9.562;2023-12-28T12:33:00;13.80;81.90
12426;DHT22;6277;49.824;9.562;2023-12-28T12:35:25;13.90;81.20
12426;DHT22;6277;49.824;9.562;2023-12-28T12:37:51;13.80;81.00
12426;DHT22;6277;49.824;9.562;2023-12-28T12:40:18;13.80;81.00
12426;DHT22;6277;49.824;9.562;2023-12-28T12:42:53;13.70;80.10
12426;DHT22;6277;49.824;9.562;2023-12-28T12:45:19;13.70;79.90
12426;DHT22;6277;49.824;9.562;2023-12-28T12:47:46;13.70;80.40
12426;DHT22;6277;49.824;9.562;2023-12-28T12:50:11;13.70;80.90
12426;DHT22;6277;49.824;9.562;2023-12-28T12:52:38;13.70;81.00
12426;DHT22;6277;49.824;9.562;2023-12-28T12:55:04;13.60;80.90
12426;DHT22;6277;49.824;9.562;2023-12-28T12:57:30;13.60;81.00
12426;DHT22;6277;49.824;9.562;2023-12-28T12:59:56;13.60;81.10
12426;DHT22;6277;49.824;9.562;2023-12-28T13:02:25;13.60;80.90
12426;DHT22;6277;49.824;9.562;2023-12-28T13:04:53;13.60;81.10
12426;DHT22;6277;49.824;9.562;2023-12-28T13:07:19;13.60;80.90
12426;DHT22;6277;49.824;9.562;2023-12-28T13:09:44;13.70;81.00
12426;DHT22;6277;49.824;9.562;2023-12-28T13:12:10;13.70;81.00
12426;DHT22;6277;49.824;9.562;2023-12-28T13:14:36;13.70;81.00
12426;DHT22;6277;49.824;9.562;2023-12-28T13:17:01;13.70;80.60
12426;DHT22;6277;49.824;9.562;2023-12-28T13:19:27;13.70;80.20
12426;DHT22;6277;49.824;9.562;2023-12-28T13:21:53;13.70;80.10
12426;DHT22;6277;49.824;9.562;2023-12-28T13:24:19;13.70;80.20
12426;DHT22;6277;49.824;9.562;2023-12-28T13:26:44;13.70;80.20
12426;DHT22;6277;49.824;9.562;2023-12-28T13:29:10;13.70;80.20
12426;DHT22;6277;49.824;9.562;2023-12-28T13:31:35;13.70;80.60
12426;DHT22;6277;49.824;9.562;2023-12-28T13:34:01;13.70;80.80
12426;DHT22;6277;49.824;9.562;2023-12-28T13:36:26;13.70;80.80
12426;DHT22;6277;49.824;9.562;2023-12-28T13:38:55;13.70;80.30
12426;DHT22;6277;49.824;9.562;2023-12-28T13:41:20;13.70;80.50
12426;DHT22;6277;49.824;9.562;2023-12-28T13:43:46;13.70;80.60
12426;DHT22;6277;49.824;9.562;2023-12-28T13:46:11;13.70;80.70
12426;DHT22;6277;49.824;9.562;2023-12-28T13:48:37;13.70;80.40
12426;DHT22;6277;49.824;9.562;2023-12-28T13:51:06;13.70;80.70
12426;DHT22;6277;49.824;9.562;2023-12-28T13:53:31;13.70;80.70
12426;DHT22;6277;49.824;9.562;2023-12-28T13:56:01;13.70;80.40
12426;DHT22;6277;49.824;9.562;2023-12-28T13:58:26;13.80;80.00
12426;DHT22;6277;49.824;9.562;2023-12-28T14:00:52;13.80;80.10
12426;DHT22;6277;49.824;9.562;2023-12-28T14:03:17;13.80;80.30
12426;DHT22;6277;49.824;9.562;2023-12-28T14:05:43;13.80;80.10
12426;DHT22;6277;49.824;9.562;2023-12-28T14:08:09;13.70;80.00
12426;DHT22;6277;49.824;9.562;2023-12-28T14:10:35;13.70;80.20
12426;DHT22;6277;49.824;9.562;2023-12-28T14:13:03;13.70;80.10
12426;DHT22;6277;49.824;9.562;2023-12-28T14:15:30;13.70;80.00
12426;DHT22;6277;49.824;9.562;2023-12-28T14:17:56;13.70;80.40
12426;DHT22;6277;49.824;9.562;2023-12-28T14:20:21;13.70;80.20
12426;DHT22;6277;49.824;9.562;2023-12-28T14:22:47;13.60;80.10
12426;DHT22;6277;49.824;9.562;2023-12-28T14:25:13;13.60;80.30
12426;DHT22;6277;49.824;9.562;2023-12-28T14:27:39;13.60;80.20
12426;DHT22;6277;49.824;9.562;2023-12-28T14:30:05;13.60;80.00
12426;DHT22;6277;49.824;9.562;2023-12-28T14:32:33;13.60;80.20
12426;DHT22;6277;49.824;9.562;2023-12-28T14:34:59;13.60;80.30
12426;DHT22;6277;49.824;9.562;2023-12-28T14:37:25;13.60;80.40
12426;DHT22;6277;49.824;9.562;2023-12-28T14:39:51;13.60;80.30
12426;DHT22;6277;49.824;9.562;2023-12-28T14:42:16;13.60;80.50
12426;DHT22;6277;49.824;9.562;2023-12-28T14:44:42;13.50;80.40
12426;DHT22;6277;49.824;9.562;2023-12-28T14:47:08;13.50;80.50
12426;DHT22;6277;49.824;9.562;2023-12-28T14:49:34;13.60;80.60
12426;DHT22;6277;49.824;9.562;2023-12-28T14:51:59;13.60;80.70
12426;DHT22;6277;49.824;9.562;2023-12-28T14:54:25;13.50;80.60
12426;DHT22;6277;49.824;9.562;2023-12-28T14:56:50;13.50;80.50
12426;DHT22;6277;49.824;9.562;2023-12-28T14:59:16;13.50;80.60
12426;DHT22;6277;49.824;9.562;2023-12-28T15:01:41;13.50;80.60
12426;DHT22;6277;49.824;9.562;2023-12-28T15:04:07;13.40;80.60
12426;DHT22;6277;49.824;9.562;2023-12-28T15:06:32;13.40;80.70
12426;DHT22;6277;49.824;9.562;2023-12-28T15:08:58;13.40;80.70
12426;DHT22;6277;49.824;9.562;2023-12-28T15:11:23;13.40;80.90
12426;DHT22;6277;49.824;9.562;2023-12-28T15:13:49;13.40;80.90
12426;DHT22;6277;49.824;9.562;2023-12-28T15:16:15;13.30;81.50
12426;DHT22;6277;49.824;9.562;2023-12-28T15:18:41;13.30;80.80
12426;DHT22;6277;49.824;9.562;2023-12-28T15:21:07;13.30;80.90
12426;DHT22;6277;49.824;9.562;2023-12-28T15:23:33;13.30;81.00
12426;DHT22;6277;49.824;9.562;2023-12-28T15:25:59;13.20;80.60
12426;DHT22;6277;49.824;9.562;2023-12-28T15:28:24;13.20;81.00
12426;DHT22;6277;49.824;9.562;2023-12-28T15:30:50;13.20;80.70
12426;DHT22;6277;49.824;9.562;2023-12-28T15:33:16;13.20;81.00
12426;DHT22;6277;49.824;9.562;2023-12-28T15:35:41;13.10;81.00
12426;DHT22;6277;49.824;9.562;2023-12-28T15:38:07;13.10;81.20
12426;DHT22;6277;49.824;9.562;2023-12-28T15:40:32;13.10;81.20
12426;DHT22;6277;49.824;9.562;2023-12-28T15:42:58;13.10;81.10
12426;DHT22;6277;49.824;9.562;2023-12-28T15:45:24;13.00;81.10
12426;DHT22;6277;49.824;9.562;2023-12-28T15:47:50;13.00;80.90
12426;DHT22;6277;49.824;9.562;2023-12-28T15:50:16;13.00;81.00